New Century 1 — H9LA — position and weather

sailwx.info

Track history (hours):
 
Tides and Currents Weather Stations Pressure Air Temp Water Temp Dewpoint Dewpoint Depression Visibility Wind Speed Wind Dir Waves Ship Positions

New Century 1

Last reported at 2014-Sep-01 12:00 UTC. Time now 2014-Sep-01 14:00 UTC.
Position N 41°24' W 147°42'.

Length 200 m; beam 32.3 m.

Type: Cargo ship. MMSI: 355234000.

Wind from 040 at 14 knots

Barometer 1016.1 mb
Air temperature 21.0 ° C
Visibility: greater than 5.4 NM
Dewpoint 19.5 ° C
Water temperature 19.0 ° C

Date/timePositionNaut miles runAvg speedWind from/ knotsBaromVisibWave heightAir tempDewpointWater temp
2014-Sep-01 12:00N 41°24' W 147°42'87817.4 040 / 141016.1 5.4 21.019.519.0
2014-Aug-30 09:31N 35°41' W 130°29'1718.1
2014-Aug-30 08:33N 35°34' W 130°10'1817.9
2014-Aug-30 07:33N 35°24' W 129°51'4117.8
2014-Aug-30 05:16N 35°00' W 129°11'1317.5
2014-Aug-30 04:32N 34°53' W 128°58'1717.3
2014-Aug-30 03:33N 34°43' W 128°41'3417.0
2014-Aug-30 01:33N 34°23' W 128°08'3617.1
2014-Aug-29 23:26N 34°01' W 127°33'3417.4
2014-Aug-29 21:29N 33°41' W 126°60'1817.4
2014-Aug-29 20:27N 33°31' W 126°43'2417.9
2014-Aug-29 19:08N 33°17' W 126°20'1017.5
2014-Aug-29 18:33N 33°11' W 126°10'1424.3
2014-Aug-29 18:00N 33°00' W 126°00'613.2 020 / 111015.810.8 0.521.018.019.0
2014-Aug-29 17:33N 33°00' W 125°53'1817.9
2014-Aug-29 16:33N 32°50' W 125°36'1817.6
2014-Aug-29 15:34N 32°39' W 125°19'1817.7
2014-Aug-29 14:33N 32°29' W 125°02'1818.0
2014-Aug-29 13:33N 32°18' W 124°45'1817.8
2014-Aug-29 12:33N 32°07' W 124°28'1717.6
2014-Aug-29 11:33N 31°57' W 124°11'1717.3
2014-Aug-29 10:33N 31°47' W 123°55'1717.2
2014-Aug-29 09:34N 31°37' W 123°39'1716.8
2014-Aug-29 08:33N 31°27' W 123°23'1717.0
2014-Aug-29 07:33N 31°17' W 123°07'1716.9
2014-Aug-29 06:33N 31°07' W 122°51'1017.6
2014-Aug-29 06:00N 31°00' W 122°42'716.4 010 / 161015.1 5.4 0.523.020.120.0
2014-Aug-29 05:33N 30°57' W 122°35'1716.7
2014-Aug-29 04:33N 30°47' W 122°19'1616.5
2014-Aug-29 03:34N 30°37' W 122°04'1616.5
2014-Aug-29 02:34N 30°27' W 121°48'1716.6
2014-Aug-29 01:33N 30°16' W 121°33'1716.5
2014-Aug-29 00:33N 30°06' W 121°19'1628.8
2014-Aug-29 00:00N 29°54' W 121°06'2 5.7 240 / 81016.1 5.4 26.021.823.0
2014-Aug-28 23:33N 29°55' W 121°03'1717.1
2014-Aug-28 22:33N 29°44' W 120°48'1717.2
2014-Aug-28 21:33N 29°33' W 120°33'1717.4
2014-Aug-28 20:33N 29°22' W 120°18'1716.8
2014-Aug-28 19:33N 29°11' W 120°03'1716.8
2014-Aug-28 18:32N 29°00' W 119°48'366673.8
2014-Aug-28 18:00N 22°54' W 119°36'356816.1 010 / 151016.327.0 2.027.025.726.0
2014-Aug-28 17:33N 28°50' W 119°33'1716.8
2014-Aug-28 16:33N 28°39' W 119°18'1716.7
2014-Aug-28 15:33N 28°28' W 119°03'1716.4
2014-Aug-28 14:29N 28°17' W 118°48'3516.4
2014-Aug-28 12:20N 27°55' W 118°17'1316.4
2014-Aug-28 11:33N 27°47' W 118°06'30017.1
2014-Aug-27 18:00N 24°36' W 113°48'77016.0 270 / 51014.727.0 3.029.026.329.0
2014-Aug-25 18:00N 17°42' W 102°12'59416.5 330 / 71011.027.0 1.531.027.126.0
2014-Aug-24 06:00N 13°30' W 092°54'   280 / 81010.4 5.4 0.529.026.327.0
Track history (hours):
 
Tides and Currents Weather Stations Pressure Air Temp Water Temp Dewpoint Dewpoint Depression Visibility Wind Speed Wind Dir Waves Ship Positions

New Century 1

Last reported at 2014-Sep-01 12:00 UTC. Time now 2014-Sep-01 14:00 UTC.
Position N 41°24' W 147°42'.

Length 200 m; beam 32.3 m.

Type: Cargo ship. MMSI: 355234000.

Wind from 040 at 14 knots

Barometer 1016.1 mb
Air temperature 21.0 ° C
Visibility: greater than 5.4 NM
Dewpoint 19.5 ° C
Water temperature 19.0 ° C

Date/timePositionNaut miles runAvg speedWind from/ knotsBaromVisibWave heightAir tempDewpointWater temp
2014-Sep-01 12:00N 41°24' W 147°42'87817.4 040 / 141016.1 5.4 21.019.519.0
2014-Aug-30 09:31N 35°41' W 130°29'1718.1
2014-Aug-30 08:33N 35°34' W 130°10'1817.9
2014-Aug-30 07:33N 35°24' W 129°51'4117.8
2014-Aug-30 05:16N 35°00' W 129°11'1317.5
2014-Aug-30 04:32N 34°53' W 128°58'1717.3
2014-Aug-30 03:33N 34°43' W 128°41'3417.0
2014-Aug-30 01:33N 34°23' W 128°08'3617.1
2014-Aug-29 23:26N 34°01' W 127°33'3417.4
2014-Aug-29 21:29N 33°41' W 126°60'1817.4
2014-Aug-29 20:27N 33°31' W 126°43'2417.9
2014-Aug-29 19:08N 33°17' W 126°20'1017.5
2014-Aug-29 18:33N 33°11' W 126°10'1424.3
2014-Aug-29 18:00N 33°00' W 126°00'613.2 020 / 111015.810.8 0.521.018.019.0
2014-Aug-29 17:33N 33°00' W 125°53'1817.9
2014-Aug-29 16:33N 32°50' W 125°36'1817.6
2014-Aug-29 15:34N 32°39' W 125°19'1817.7
2014-Aug-29 14:33N 32°29' W 125°02'1818.0
2014-Aug-29 13:33N 32°18' W 124°45'1817.8
2014-Aug-29 12:33N 32°07' W 124°28'1717.6
2014-Aug-29 11:33N 31°57' W 124°11'1717.3
2014-Aug-29 10:33N 31°47' W 123°55'1717.2
2014-Aug-29 09:34N 31°37' W 123°39'1716.8
2014-Aug-29 08:33N 31°27' W 123°23'1717.0
2014-Aug-29 07:33N 31°17' W 123°07'1716.9
2014-Aug-29 06:33N 31°07' W 122°51'1017.6
2014-Aug-29 06:00N 31°00' W 122°42'716.4 010 / 161015.1 5.4 0.523.020.120.0
2014-Aug-29 05:33N 30°57' W 122°35'1716.7
2014-Aug-29 04:33N 30°47' W 122°19'1616.5
2014-Aug-29 03:34N 30°37' W 122°04'1616.5
2014-Aug-29 02:34N 30°27' W 121°48'1716.6
2014-Aug-29 01:33N 30°16' W 121°33'1716.5
2014-Aug-29 00:33N 30°06' W 121°19'1628.8
2014-Aug-29 00:00N 29°54' W 121°06'2 5.7 240 / 81016.1 5.4 26.021.823.0
2014-Aug-28 23:33N 29°55' W 121°03'1717.1
2014-Aug-28 22:33N 29°44' W 120°48'1717.2
2014-Aug-28 21:33N 29°33' W 120°33'1717.4
2014-Aug-28 20:33N 29°22' W 120°18'1716.8
2014-Aug-28 19:33N 29°11' W 120°03'1716.8
2014-Aug-28 18:32N 29°00' W 119°48'366673.8
2014-Aug-28 18:00N 22°54' W 119°36'356816.1 010 / 151016.327.0 2.027.025.726.0
2014-Aug-28 17:33N 28°50' W 119°33'1716.8
2014-Aug-28 16:33N 28°39' W 119°18'1716.7
2014-Aug-28 15:33N 28°28' W 119°03'1716.4
2014-Aug-28 14:29N 28°17' W 118°48'3516.4
2014-Aug-28 12:20N 27°55' W 118°17'1316.4
2014-Aug-28 11:33N 27°47' W 118°06'30017.1
2014-Aug-27 18:00N 24°36' W 113°48'77016.0 270 / 51014.727.0 3.029.026.329.0
2014-Aug-25 18:00N 17°42' W 102°12'59416.5 330 / 71011.027.0 1.531.027.126.0
2014-Aug-24 06:00N 13°30' W 092°54'   280 / 81010.4 5.4 0.529.026.327.0

Dump ship's entire track history